KALW/ALW METAR and TAF weather

Enter ICAO airport designator
Station Type Date Time Source
KALW METAR 2019/02/23 16:53 UTC NOAA

KALW 231653Z 18005KT 10SM CLR 02/M02 A3012 RMK AO2 SLP210 T00171022


Station Type Date Time Source
KALW Decoded METAR 2019/02/23 16:53 UTC NOAA

WALLA WALLA REGIONAL AIRPORT, WA, United States (KALW) 46-06N 118-17W 363M
Feb 23, 2019 - 11:53 AM EST / 2019.02.23 1653 UTC
Wind: from the S (180 degrees) at 6 MPH (5 KT):0
Visibility: 10 mile(s):0
Sky conditions: clear
Temperature: 35.1 F (1.7 C)
Dew Point: 28.0 F (-2.2 C)
Relative Humidity: 75%
Pressure (altimeter): 30.12 in. Hg (1019 hPa)
ob: KALW 231653Z 18005KT 10SM CLR 02/M02 A3012 RMK AO2 SLP210 T00171022
cycle: 17

Station Type Date Time Source
KALW TAF 2019/02/23 16:03 UTC NOAA

TAF
AMD KALW 231600Z 2316/2412 16006KT P6SM SCT060
FM231800 25008KT P6SM BKN100
FM240300 12005KT P6SM SCT050 OVC100
TEMPO 2409/2412 5SM -SN BKN020 OVC050


Example: see airport list